createdAt,value
2023-05-12T00:03:04.708Z,7.35
2023-05-12T00:08:26.671Z,3.80
2023-05-12T00:13:48.663Z,5.05
2023-05-12T00:19:10.587Z,4.93
2023-05-12T00:24:32.755Z,4.85
2023-05-12T00:29:54.546Z,6.22
2023-05-12T00:35:17.295Z,4.65
2023-05-12T00:40:41.549Z,5.68
2023-05-12T00:46:05.820Z,3.20
2023-05-12T00:51:28.203Z,3.97
2023-05-12T00:56:50.066Z,3.83
2023-05-12T01:02:12.116Z,2.90
2023-05-12T01:07:34.157Z,3.40
2023-05-12T01:12:56.448Z,3.20
2023-05-12T01:18:20.877Z,5.50
2023-05-12T01:23:46.993Z,5.05
2023-05-12T01:29:09.017Z,3.30
2023-05-12T01:34:31.020Z,3.80
2023-05-12T01:39:56.226Z,4.05
2023-05-12T01:45:18.058Z,4.65
2023-05-12T01:50:39.880Z,4.03
2023-05-12T01:56:02.030Z,4.15
2023-05-12T02:01:25.890Z,4.13
2023-05-12T02:06:50.768Z,3.25
2023-05-12T02:12:12.627Z,4.47
2023-05-12T02:17:34.414Z,4.07
2023-05-12T02:22:56.581Z,4.22
2023-05-12T02:28:18.383Z,2.75
2023-05-12T02:33:40.158Z,3.53
2023-05-12T02:39:01.982Z,3.72
2023-05-12T02:44:23.906Z,3.15
2023-05-12T02:49:45.668Z,4.20
2023-05-12T02:55:07.874Z,4.18
2023-05-12T03:00:29.658Z,4.03
2023-05-12T03:05:53.040Z,3.83
2023-05-12T03:11:15.602Z,5.07
2023-05-12T03:16:37.396Z,3.47
2023-05-12T03:21:59.298Z,7.68
2023-05-12T03:27:22.109Z,3.80
2023-05-12T03:32:45.497Z,2.83
2023-05-12T03:38:07.317Z,3.05
2023-05-12T03:43:29.356Z,2.17
2023-05-12T03:48:51.221Z,2.30
2023-05-12T03:54:13.073Z,2.60
2023-05-12T03:59:35.104Z,2.20
2023-05-12T04:04:57.404Z,2.22
2023-05-12T04:10:19.517Z,3.85
2023-05-12T04:15:41.418Z,3.10
2023-05-12T04:21:03.250Z,1.83
2023-05-12T04:26:25.088Z,2.65
2023-05-12T04:31:47.160Z,3.60
2023-05-12T04:37:09.060Z,1.95
2023-05-12T04:42:31.201Z,3.28
2023-05-12T04:47:53.122Z,2.03
2023-05-12T04:53:18.866Z,3.22
2023-05-12T04:58:40.832Z,2.38
2023-05-12T05:04:02.925Z,1.33
2023-05-12T05:09:24.734Z,1.95
2023-05-12T05:14:46.581Z,1.40
2023-05-12T05:20:11.823Z,1.42
2023-05-12T05:25:34.741Z,1.10
2023-05-12T05:30:56.982Z,2.17
2023-05-12T05:36:18.892Z,1.85
2023-05-12T05:41:40.774Z,5.53
2023-05-12T05:47:03.348Z,2.72
2023-05-12T05:52:25.240Z,2.35
2023-05-12T05:57:47.089Z,3.03
2023-05-12T06:03:09.084Z,2.25
2023-05-12T06:08:30.939Z,5.25
2023-05-12T06:13:52.892Z,4.30
2023-05-12T06:19:15.854Z,3.70
2023-05-12T06:24:37.705Z,2.17
2023-05-12T06:29:59.524Z,8.50
2023-05-12T06:35:21.608Z,8.93
2023-05-12T06:40:43.562Z,3.58
2023-05-12T06:46:05.775Z,3.30
2023-05-12T06:51:27.648Z,7.78
2023-05-12T06:56:49.453Z,2.60
2023-05-12T07:02:11.359Z,8.07
2023-05-12T07:07:33.132Z,4.95
2023-05-12T07:12:54.957Z,4.60
2023-05-12T07:18:16.927Z,2.72
2023-05-12T07:23:41.637Z,6.50
2023-05-12T07:29:04.448Z,3.70
2023-05-12T07:34:26.302Z,17.08
2023-05-12T07:39:48.078Z,6.00
2023-05-12T07:45:10.204Z,5.47
2023-05-12T07:50:32.038Z,3.65
2023-05-12T07:55:53.939Z,6.47
2023-05-12T08:01:15.798Z,8.35
2023-05-12T08:06:38.187Z,4.88
2023-05-12T08:12:00.527Z,5.00
2023-05-12T08:17:22.548Z,3.88
2023-05-12T08:22:44.953Z,9.32
2023-05-12T08:28:06.792Z,6.45
2023-05-12T08:33:28.941Z,9.40
2023-05-12T08:38:50.805Z,8.60
2023-05-12T08:44:13.294Z,6.57
2023-05-12T08:49:36.714Z,22.92
2023-05-12T08:55:00.736Z,17.27
2023-05-12T09:00:25.819Z,17.58
2023-05-12T09:05:47.982Z,17.67
2023-05-12T09:11:13.114Z,32.10
2023-05-12T09:16:42.005Z,31.33
2023-05-12T09:22:04.182Z,25.80
2023-05-12T09:27:29.953Z,20.27
2023-05-12T09:32:51.829Z,27.88
2023-05-12T09:38:14.890Z,22.67
2023-05-12T09:43:37.863Z,31.60
2023-05-12T09:49:00.308Z,23.42
2023-05-12T09:54:32.279Z,21.30
2023-05-12T09:59:54.829Z,22.60
2023-05-12T10:05:21.158Z,18.30
2023-05-12T10:10:48.739Z,20.77
2023-05-12T10:16:10.879Z,19.65
2023-05-12T10:21:34.147Z,18.02
2023-05-12T10:26:56.874Z,19.00
2023-05-12T10:32:18.827Z,16.05
2023-05-12T10:37:43.029Z,19.17
2023-05-12T10:43:05.163Z,26.65
2023-05-12T10:48:27.118Z,17.88
2023-05-12T10:53:54.866Z,15.07
2023-05-12T10:59:25.602Z,21.20
2023-05-12T11:04:52.812Z,22.23
2023-05-12T11:10:15.202Z,25.42
2023-05-12T11:15:38.055Z,14.07
2023-05-12T11:21:09.977Z,9.15
2023-05-12T11:26:32.126Z,19.17
2023-05-12T11:31:54.223Z,9.88
2023-05-12T11:37:16.084Z,9.43
2023-05-12T11:42:39.497Z,8.35
2023-05-12T11:48:14.336Z,8.90
2023-05-12T11:53:41.332Z,5.38
2023-05-12T11:59:03.151Z,9.32
2023-05-12T12:04:51.105Z,5.70
2023-05-12T12:10:18.301Z,9.38
2023-05-12T12:15:40.142Z,5.65
2023-05-12T12:21:02.037Z,10.95
2023-05-12T12:26:23.928Z,5.10
2023-05-12T12:31:46.142Z,4.88
2023-05-12T12:37:08.080Z,3.72
2023-05-12T12:42:30.306Z,3.50
2023-05-12T12:47:52.872Z,2.97
2023-05-12T12:53:14.693Z,5.63
2023-05-12T12:58:36.523Z,2.67
2023-05-12T13:04:00.514Z,3.30
2023-05-12T13:09:22.327Z,3.25
2023-05-12T13:14:44.223Z,2.30
2023-05-12T13:20:06.677Z,2.67
2023-05-12T13:25:28.468Z,3.47
2023-05-12T13:30:53.461Z,2.78
2023-05-12T13:36:15.288Z,2.17
2023-05-12T13:41:37.518Z,3.30
2023-05-12T13:46:59.428Z,2.88
2023-05-12T13:52:21.196Z,2.15
2023-05-12T13:57:42.978Z,1.35
2023-05-12T14:03:04.902Z,1.90
2023-05-12T14:08:26.773Z,2.08
2023-05-12T14:13:48.548Z,2.20
2023-05-12T14:19:10.371Z,1.83
2023-05-12T14:24:32.411Z,1.25
2023-05-12T14:29:54.264Z,2.47
2023-05-12T14:35:16.168Z,1.52
2023-05-12T14:40:39.632Z,3.70
2023-05-12T14:46:02.495Z,2.33
2023-05-12T14:51:24.321Z,2.55
2023-05-12T14:56:46.086Z,2.03
2023-05-12T15:02:07.999Z,2.30
2023-05-12T15:07:29.857Z,2.40
2023-05-12T15:12:51.723Z,1.23
2023-05-12T15:18:13.546Z,1.50
2023-05-12T15:23:35.417Z,1.95
2023-05-12T15:28:57.258Z,1.63
2023-05-12T15:34:19.062Z,1.75
2023-05-12T15:39:40.843Z,3.20
2023-05-12T15:45:02.918Z,3.55
2023-05-12T15:50:24.866Z,1.63
2023-05-12T15:55:47.162Z,3.47
2023-05-12T16:01:08.960Z,4.80
2023-05-12T16:06:30.749Z,3.28
2023-05-12T16:11:53.438Z,5.30
2023-05-12T16:17:15.231Z,4.97
2023-05-12T16:22:37.096Z,2.67
2023-05-12T16:27:59.224Z,3.38
2023-05-12T16:33:21.045Z,3.25
2023-05-12T16:38:42.990Z,4.95
2023-05-12T16:44:05.269Z,5.47
2023-05-12T16:49:27.081Z,4.72
2023-05-12T16:54:48.883Z,6.05
2023-05-12T17:00:11.457Z,18.92
2023-05-12T17:05:33.555Z,24.35
2023-05-12T17:10:55.328Z,21.05
2023-05-12T17:16:17.221Z,20.13
2023-05-12T17:21:39.049Z,25.98
2023-05-12T17:27:01.456Z,22.15
2023-05-12T17:32:23.443Z,18.95
2023-05-12T17:37:45.436Z,24.05
2023-05-12T17:43:07.630Z,16.20
2023-05-12T17:48:33.487Z,18.08
2023-05-12T17:53:55.430Z,14.20
2023-05-12T17:59:17.418Z,16.85
2023-05-12T18:04:40.134Z,13.90
2023-05-12T18:10:02.906Z,16.30
2023-05-12T18:15:25.182Z,12.73
2023-05-12T18:20:47.128Z,11.35
2023-05-12T18:26:09.551Z,12.90
2023-05-12T18:31:31.483Z,10.80
2023-05-12T18:36:53.813Z,10.73
2023-05-12T18:42:15.612Z,10.38
2023-05-12T18:47:37.709Z,7.28
2023-05-12T18:52:59.614Z,15.30
2023-05-12T18:58:21.737Z,18.48
2023-05-12T19:03:43.569Z,13.27
2023-05-12T19:09:05.847Z,15.38
2023-05-12T19:14:27.640Z,15.63
2023-05-12T19:19:51.053Z,9.13
2023-05-12T19:25:18.100Z,8.55
2023-05-12T19:30:39.935Z,9.50
2023-05-12T19:36:02.307Z,8.27
2023-05-12T19:41:24.488Z,8.65
2023-05-12T19:46:47.281Z,8.55
2023-05-12T19:52:09.078Z,13.90
2023-05-12T19:57:31.107Z,15.68
2023-05-12T20:02:53.177Z,7.57
2023-05-12T20:08:15.195Z,8.63
2023-05-12T20:13:37.040Z,7.72
2023-05-12T20:19:00.042Z,14.68
2023-05-12T20:24:23.736Z,6.97
2023-05-12T20:29:45.549Z,4.45
2023-05-12T20:35:07.688Z,8.73
2023-05-12T20:40:29.792Z,5.60
2023-05-12T20:45:51.669Z,8.48
2023-05-12T20:51:13.677Z,5.60
2023-05-12T20:56:35.434Z,9.23
2023-05-12T21:01:57.374Z,8.40
2023-05-12T21:07:20.045Z,5.30
2023-05-12T21:12:41.971Z,3.42
2023-05-12T21:18:04.400Z,4.95
2023-05-12T21:23:26.539Z,10.18
2023-05-12T21:28:48.309Z,4.70
2023-05-12T21:34:10.625Z,5.43
2023-05-12T21:39:32.380Z,3.65
2023-05-12T21:44:54.182Z,6.30
2023-05-12T21:50:17.001Z,5.32
2023-05-12T21:55:40.867Z,5.78
2023-05-12T22:01:02.816Z,6.40
2023-05-12T22:06:24.891Z,5.15
2023-05-12T22:11:46.916Z,3.83
2023-05-12T22:17:09.250Z,4.13
2023-05-12T22:22:31.199Z,4.25
2023-05-12T22:27:53.179Z,6.72
2023-05-12T22:33:17.956Z,6.18
2023-05-12T22:38:39.842Z,5.30
2023-05-12T22:44:01.679Z,5.55
2023-05-12T22:49:23.674Z,5.13
2023-05-12T22:54:45.690Z,3.28
2023-05-12T23:00:07.862Z,5.55
2023-05-12T23:05:29.677Z,5.78
2023-05-12T23:10:51.402Z,3.65
2023-05-12T23:16:13.194Z,3.97
2023-05-12T23:21:35.067Z,3.92
2023-05-12T23:26:56.917Z,3.97
2023-05-12T23:32:18.798Z,4.35
2023-05-12T23:37:40.793Z,7.90
2023-05-12T23:43:02.725Z,4.47
2023-05-12T23:48:24.884Z,4.00
2023-05-12T23:53:46.726Z,4.38
2023-05-12T23:59:09.329Z,3.72
